< < Back
Terminal Aerodrome Forecast


Current Version              Previous Versions:   1  2  3  4  5  6  7  8  9  

Terminal Aerodrome Forecast

243
FTUS44 KMRX 021720
TAFTYS
TAF
KTYS 021720Z 0218/0318 02008KT P6SM BKN015
     FM022000 03005KT P6SM BKN035
     FM030700 03003KT 4SM -RA BR BKN007 OVC035
     FM031000 00000KT 2SM -RA BR BKN005=



Latest METAR

272
SAUS80 KWBC 022300 RRA
MTRTYS
METAR KTYS 022253Z 07008KT 10SM SCT020 BKN200 07/03 A3032 RMK AO2 SLP268
T00670028


USA.gov is the U.S. government's official web portal to all federal, state and local government web resources and services.